sensor_id;sensor_type;location;lat;lon;timestamp;pressure;altitude;pressure_sealevel;temperature;humidity
56038;BME280;41907;47.848;9.000;2022-10-16T00:01:06;95805.63;;;11.78;100.00
56038;BME280;41907;47.848;9.000;2022-10-16T00:03:31;95811.13;;;11.82;100.00
56038;BME280;41907;47.848;9.000;2022-10-16T00:06:00;95811.78;;;11.96;100.00
56038;BME280;41907;47.848;9.000;2022-10-16T00:08:25;95803.09;;;11.99;100.00
56038;BME280;41907;47.848;9.000;2022-10-16T00:10:51;95801.56;;;11.98;100.00
56038;BME280;41907;47.848;9.000;2022-10-16T00:13:16;95800.44;;;11.90;100.00
56038;BME280;41907;47.848;9.000;2022-10-16T00:15:43;95797.44;;;11.83;100.00
56038;BME280;41907;47.848;9.000;2022-10-16T00:18:09;95799.94;;;11.80;100.00
56038;BME280;41907;47.848;9.000;2022-10-16T00:20:35;95801.69;;;11.84;100.00
56038;BME280;41907;47.848;9.000;2022-10-16T00:23:02;95810.69;;;11.97;100.00
56038;BME280;41907;47.848;9.000;2022-10-16T00:25:28;95804.69;;;11.91;100.00
56038;BME280;41907;47.848;9.000;2022-10-16T00:27:53;95800.13;;;12.01;100.00
56038;BME280;41907;47.848;9.000;2022-10-16T00:30:19;95794.94;;;11.87;100.00
56038;BME280;41907;47.848;9.000;2022-10-16T00:32:44;95801.06;;;11.87;100.00
56038;BME280;41907;47.848;9.000;2022-10-16T00:35:09;95799.81;;;11.76;100.00
56038;BME280;41907;47.848;9.000;2022-10-16T00:37:35;95802.78;;;11.83;100.00
56038;BME280;41907;47.848;9.000;2022-10-16T00:40:00;95804.69;;;11.83;100.00
56038;BME280;41907;47.848;9.000;2022-10-16T00:42:25;95803.88;;;11.82;100.00
56038;BME280;41907;47.848;9.000;2022-10-16T00:44:56;95805.47;;;11.83;100.00
56038;BME280;41907;47.848;9.000;2022-10-16T00:47:32;95810.03;;;11.83;100.00
56038;BME280;41907;47.848;9.000;2022-10-16T00:50:06;95816.78;;;11.89;100.00
56038;BME280;41907;47.848;9.000;2022-10-16T00:52:33;95815.69;;;11.90;100.00
56038;BME280;41907;47.848;9.000;2022-10-16T00:55:00;95809.41;;;11.95;100.00
56038;BME280;41907;47.848;9.000;2022-10-16T00:57:26;95812.09;;;12.03;100.00
56038;BME280;41907;47.848;9.000;2022-10-16T00:59:52;95811.78;;;12.13;100.00
56038;BME280;41907;47.848;9.000;2022-10-16T01:02:18;95815.72;;;12.24;100.00
56038;BME280;41907;47.848;9.000;2022-10-16T01:04:53;95811.28;;;12.37;100.00
56038;BME280;41907;47.848;9.000;2022-10-16T01:07:31;95799.16;;;12.40;100.00
56038;BME280;41907;47.848;9.000;2022-10-16T01:12:47;95790.22;;;12.18;100.00
56038;BME280;41907;47.848;9.000;2022-10-16T01:18:00;95798.22;;;12.27;100.00
56038;BME280;41907;47.848;9.000;2022-10-16T01:20:35;95813.97;;;12.28;100.00
56038;BME280;41907;47.848;9.000;2022-10-16T01:23:16;95817.41;;;12.38;100.00
56038;BME280;41907;47.848;9.000;2022-10-16T01:26:10;95812.53;;;12.40;100.00
56038;BME280;41907;47.848;9.000;2022-10-16T01:28:45;95810.47;;;12.37;100.00
56038;BME280;41907;47.848;9.000;2022-10-16T01:31:17;95815.84;;;12.37;100.00
56038;BME280;41907;47.848;9.000;2022-10-16T01:33:51;95816.00;;;12.40;100.00
56038;BME280;41907;47.848;9.000;2022-10-16T01:36:28;95819.16;;;12.42;100.00
56038;BME280;41907;47.848;9.000;2022-10-16T01:39:00;95818.53;;;12.45;100.00
56038;BME280;41907;47.848;9.000;2022-10-16T01:41:33;95830.78;;;12.46;100.00
56038;BME280;41907;47.848;9.000;2022-10-16T01:44:07;95819.13;;;12.51;100.00
56038;BME280;41907;47.848;9.000;2022-10-16T01:46:36;95820.41;;;12.45;100.00
56038;BME280;41907;47.848;9.000;2022-10-16T01:49:03;95820.75;;;12.35;100.00
56038;BME280;41907;47.848;9.000;2022-10-16T01:51:29;95828.75;;;12.43;100.00
56038;BME280;41907;47.848;9.000;2022-10-16T01:53:57;95825.13;;;12.48;100.00
56038;BME280;41907;47.848;9.000;2022-10-16T01:56:24;95821.34;;;12.49;100.00
56038;BME280;41907;47.848;9.000;2022-10-16T01:58:55;95826.88;;;12.35;100.00
56038;BME280;41907;47.848;9.000;2022-10-16T02:01:25;95818.06;;;12.43;100.00
56038;BME280;41907;47.848;9.000;2022-10-16T02:03:54;95823.53;;;12.47;100.00
56038;BME280;41907;47.848;9.000;2022-10-16T02:06:22;95817.56;;;12.41;100.00
56038;BME280;41907;47.848;9.000;2022-10-16T02:08:48;95818.50;;;12.37;100.00
56038;BME280;41907;47.848;9.000;2022-10-16T02:11:14;95814.59;;;12.34;100.00
56038;BME280;41907;47.848;9.000;2022-10-16T02:13:48;95822.31;;;12.36;100.00
56038;BME280;41907;47.848;9.000;2022-10-16T02:16:16;95821.69;;;12.21;100.00
56038;BME280;41907;47.848;9.000;2022-10-16T02:18:42;95828.91;;;12.21;100.00
56038;BME280;41907;47.848;9.000;2022-10-16T02:21:25;95833.78;;;12.27;100.00
56038;BME280;41907;47.848;9.000;2022-10-16T02:24:00;95828.28;;;12.15;100.00
56038;BME280;41907;47.848;9.000;2022-10-16T02:26:36;95830.19;;;12.23;100.00
56038;BME280;41907;47.848;9.000;2022-10-16T02:29:07;95827.03;;;12.13;100.00
56038;BME280;41907;47.848;9.000;2022-10-16T02:31:38;95824.50;;;11.99;100.00
56038;BME280;41907;47.848;9.000;2022-10-16T02:34:07;95827.50;;;11.98;100.00
56038;BME280;41907;47.848;9.000;2022-10-16T02:36:34;95836.28;;;11.89;100.00
56038;BME280;41907;47.848;9.000;2022-10-16T02:39:02;95828.13;;;11.86;100.00
56038;BME280;41907;47.848;9.000;2022-10-16T02:41:29;95825.75;;;11.84;100.00
56038;BME280;41907;47.848;9.000;2022-10-16T02:43:54;95836.44;;;11.84;100.00
56038;BME280;41907;47.848;9.000;2022-10-16T02:46:20;95838.31;;;11.92;100.00
56038;BME280;41907;47.848;9.000;2022-10-16T02:48:46;95837.41;;;11.97;100.00
56038;BME280;41907;47.848;9.000;2022-10-16T02:51:11;95841.50;;;12.03;100.00
56038;BME280;41907;47.848;9.000;2022-10-16T02:53:36;95836.13;;;11.95;100.00
56038;BME280;41907;47.848;9.000;2022-10-16T02:56:02;95823.25;;;11.97;100.00
56038;BME280;41907;47.848;9.000;2022-10-16T02:58:27;95826.84;;;11.92;100.00
56038;BME280;41907;47.848;9.000;2022-10-16T03:00:52;95815.53;;;11.86;100.00
56038;BME280;41907;47.848;9.000;2022-10-16T03:03:18;95817.72;;;11.84;100.00
56038;BME280;41907;47.848;9.000;2022-10-16T03:05:44;95818.03;;;11.83;100.00
56038;BME280;41907;47.848;9.000;2022-10-16T03:08:11;95825.91;;;11.88;100.00
56038;BME280;41907;47.848;9.000;2022-10-16T03:10:37;95814.09;;;11.89;100.00
56038;BME280;41907;47.848;9.000;2022-10-16T03:13:02;95824.66;;;11.94;100.00
56038;BME280;41907;47.848;9.000;2022-10-16T03:15:28;95829.69;;;11.96;100.00
56038;BME280;41907;47.848;9.000;2022-10-16T03:17:54;95830.31;;;11.92;100.00
56038;BME280;41907;47.848;9.000;2022-10-16T03:20:19;95828.91;;;11.86;100.00
56038;BME280;41907;47.848;9.000;2022-10-16T03:22:44;95836.91;;;11.86;100.00
56038;BME280;41907;47.848;9.000;2022-10-16T03:25:10;95839.44;;;11.91;100.00
56038;BME280;41907;47.848;9.000;2022-10-16T03:27:35;95841.97;;;11.97;100.00
56038;BME280;41907;47.848;9.000;2022-10-16T03:30:00;95842.91;;;12.09;100.00
56038;BME280;41907;47.848;9.000;2022-10-16T03:32:26;95847.47;;;12.17;100.00
56038;BME280;41907;47.848;9.000;2022-10-16T03:34:53;95843.84;;;12.22;100.00
56038;BME280;41907;47.848;9.000;2022-10-16T03:37:19;95854.84;;;12.29;100.00
56038;BME280;41907;47.848;9.000;2022-10-16T03:39:44;95854.72;;;12.34;100.00
56038;BME280;41907;47.848;9.000;2022-10-16T03:42:10;95847.63;;;12.29;100.00
56038;BME280;41907;47.848;9.000;2022-10-16T03:44:35;95843.06;;;12.21;100.00
56038;BME280;41907;47.848;9.000;2022-10-16T03:47:00;95842.44;;;12.07;100.00
56038;BME280;41907;47.848;9.000;2022-10-16T03:49:26;95845.25;;;12.11;100.00
56038;BME280;41907;47.848;9.000;2022-10-16T03:51:51;95844.00;;;12.08;100.00
56038;BME280;41907;47.848;9.000;2022-10-16T03:54:16;95851.09;;;12.13;100.00
56038;BME280;41907;47.848;9.000;2022-10-16T03:56:42;95848.25;;;12.09;100.00
56038;BME280;41907;47.848;9.000;2022-10-16T03:59:07;95839.28;;;12.05;100.00
56038;BME280;41907;47.848;9.000;2022-10-16T04:01:33;95846.22;;;12.06;100.00
56038;BME280;41907;47.848;9.000;2022-10-16T04:03:58;95842.59;;;12.02;100.00
56038;BME280;41907;47.848;9.000;2022-10-16T04:06:23;95849.50;;;12.03;100.00
56038;BME280;41907;47.848;9.000;2022-10-16T04:08:49;95846.03;;;12.03;100.00
56038;BME280;41907;47.848;9.000;2022-10-16T04:11:14;95850.13;;;12.00;100.00
56038;BME280;41907;47.848;9.000;2022-10-16T04:13:39;95844.16;;;11.95;100.00
56038;BME280;41907;47.848;9.000;2022-10-16T04:16:05;95839.44;;;11.91;100.00
56038;BME280;41907;47.848;9.000;2022-10-16T04:18:30;95856.06;;;11.80;100.00
56038;BME280;41907;47.848;9.000;2022-10-16T04:20:55;95859.47;;;11.72;100.00
56038;BME280;41907;47.848;9.000;2022-10-16T04:23:21;95858.53;;;11.59;100.00
56038;BME280;41907;47.848;9.000;2022-10-16T04:25:48;95859.44;;;11.54;100.00
56038;BME280;41907;47.848;9.000;2022-10-16T04:28:13;95864.19;;;11.66;100.00
56038;BME280;41907;47.848;9.000;2022-10-16T04:30:39;95878.97;;;11.72;100.00
56038;BME280;41907;47.848;9.000;2022-10-16T04:33:04;95865.47;;;11.69;100.00
56038;BME280;41907;47.848;9.000;2022-10-16T04:35:29;95872.22;;;11.66;100.00
56038;BME280;41907;47.848;9.000;2022-10-16T04:37:57;95870.63;;;11.65;100.00
56038;BME280;41907;47.848;9.000;2022-10-16T04:40:23;95872.66;;;11.60;100.00
56038;BME280;41907;47.848;9.000;2022-10-16T04:42:48;95876.56;;;11.53;100.00
56038;BME280;41907;47.848;9.000;2022-10-16T04:45:14;95878.13;;;11.54;100.00
56038;BME280;41907;47.848;9.000;2022-10-16T04:47:39;95872.97;;;11.58;100.00
56038;BME280;41907;47.848;9.000;2022-10-16T04:50:05;95864.81;;;11.63;100.00
56038;BME280;41907;47.848;9.000;2022-10-16T04:52:31;95877.69;;;11.61;100.00
56038;BME280;41907;47.848;9.000;2022-10-16T04:54:57;95874.69;;;11.54;100.00
56038;BME280;41907;47.848;9.000;2022-10-16T04:57:26;95879.72;;;11.55;100.00
56038;BME280;41907;47.848;9.000;2022-10-16T04:59:52;95881.13;;;11.62;100.00
56038;BME280;41907;47.848;9.000;2022-10-16T05:02:17;95878.81;;;11.69;100.00
56038;BME280;41907;47.848;9.000;2022-10-16T05:04:42;95885.41;;;11.71;100.00
56038;BME280;41907;47.848;9.000;2022-10-16T05:07:08;95887.81;;;11.81;100.00
56038;BME280;41907;47.848;9.000;2022-10-16T05:09:33;95884.72;;;11.88;100.00
56038;BME280;41907;47.848;9.000;2022-10-16T05:11:59;95886.09;;;11.77;100.00
56038;BME280;41907;47.848;9.000;2022-10-16T05:14:24;95882.44;;;11.73;100.00
56038;BME280;41907;47.848;9.000;2022-10-16T05:16:49;95885.75;;;11.70;100.00
56038;BME280;41907;47.848;9.000;2022-10-16T05:19:15;95884.94;;;11.69;100.00
56038;BME280;41907;47.848;9.000;2022-10-16T05:21:40;95889.72;;;11.81;100.00
56038;BME280;41907;47.848;9.000;2022-10-16T05:24:06;95895.56;;;11.91;100.00
56038;BME280;41907;47.848;9.000;2022-10-16T05:26:31;95888.34;;;12.01;100.00
56038;BME280;41907;47.848;9.000;2022-10-16T05:28:57;95892.13;;;12.08;100.00
56038;BME280;41907;47.848;9.000;2022-10-16T05:31:22;95891.03;;;12.18;100.00
56038;BME280;41907;47.848;9.000;2022-10-16T05:33:47;95885.38;;;12.19;100.00
56038;BME280;41907;47.848;9.000;2022-10-16T05:36:13;95882.56;;;12.24;100.00
56038;BME280;41907;47.848;9.000;2022-10-16T05:38:39;95899.69;;;12.32;100.00
56038;BME280;41907;47.848;9.000;2022-10-16T05:41:05;95893.41;;;12.37;100.00
56038;BME280;41907;47.848;9.000;2022-10-16T05:43:31;95886.94;;;12.38;100.00
56038;BME280;41907;47.848;9.000;2022-10-16T05:45:58;95892.31;;;12.38;100.00
56038;BME280;41907;47.848;9.000;2022-10-16T05:48:24;95896.06;;;12.37;100.00
56038;BME280;41907;47.848;9.000;2022-10-16T05:51:05;95889.94;;;12.27;100.00
56038;BME280;41907;47.848;9.000;2022-10-16T05:53:34;95890.41;;;12.21;100.00
56038;BME280;41907;47.848;9.000;2022-10-16T05:56:00;95892.75;;;12.05;100.00
56038;BME280;41907;47.848;9.000;2022-10-16T05:58:31;95894.75;;;11.91;100.00
56038;BME280;41907;47.848;9.000;2022-10-16T06:01:05;95913.19;;;12.01;100.00
56038;BME280;41907;47.848;9.000;2022-10-16T06:03:32;95904.38;;;12.09;100.00
56038;BME280;41907;47.848;9.000;2022-10-16T06:05:58;95901.09;;;12.21;100.00
56038;BME280;41907;47.848;9.000;2022-10-16T06:08:23;95899.41;;;12.34;100.00
56038;BME280;41907;47.848;9.000;2022-10-16T06:11:07;95902.53;;;12.44;100.00
56038;BME280;41907;47.848;9.000;2022-10-16T06:13:32;95905.06;;;12.49;100.00
56038;BME280;41907;47.848;9.000;2022-10-16T06:15:59;95905.06;;;12.49;100.00
56038;BME280;41907;47.848;9.000;2022-10-16T06:18:26;95914.81;;;12.54;100.00
56038;BME280;41907;47.848;9.000;2022-10-16T06:20:52;95912.16;;;12.54;100.00
56038;BME280;41907;47.848;9.000;2022-10-16T06:23:17;95909.78;;;12.52;100.00
56038;BME280;41907;47.848;9.000;2022-10-16T06:25:43;95915.13;;;12.61;100.00
56038;BME280;41907;47.848;9.000;2022-10-16T06:28:08;95924.56;;;12.67;100.00
56038;BME280;41907;47.848;9.000;2022-10-16T06:30:34;95918.72;;;12.65;100.00
56038;BME280;41907;47.848;9.000;2022-10-16T06:32:59;95929.44;;;12.65;100.00
56038;BME280;41907;47.848;9.000;2022-10-16T06:35:24;95930.25;;;12.83;100.00
56038;BME280;41907;47.848;9.000;2022-10-16T06:37:50;95937.47;;;12.99;100.00
56038;BME280;41907;47.848;9.000;2022-10-16T06:40:15;95945.28;;;13.13;100.00
56038;BME280;41907;47.848;9.000;2022-10-16T06:42:41;95938.53;;;13.24;100.00
56038;BME280;41907;47.848;9.000;2022-10-16T06:45:07;95942.59;;;13.39;100.00
56038;BME280;41907;47.848;9.000;2022-10-16T06:47:32;95949.63;;;13.52;100.00
56038;BME280;41907;47.848;9.000;2022-10-16T06:49:57;95948.03;;;13.60;100.00
56038;BME280;41907;47.848;9.000;2022-10-16T06:52:23;95951.03;;;13.67;100.00
56038;BME280;41907;47.848;9.000;2022-10-16T06:54:49;95958.72;;;13.77;100.00
56038;BME280;41907;47.848;9.000;2022-10-16T06:57:14;95959.00;;;13.84;100.00
56038;BME280;41907;47.848;9.000;2022-10-16T06:59:40;95960.16;;;14.04;100.00
56038;BME280;41907;47.848;9.000;2022-10-16T07:02:05;95955.34;;;14.18;100.00
56038;BME280;41907;47.848;9.000;2022-10-16T07:04:32;95959.69;;;14.31;100.00
56038;BME280;41907;47.848;9.000;2022-10-16T07:06:57;95968.19;;;14.42;100.00
56038;BME280;41907;47.848;9.000;2022-10-16T07:09:25;95967.72;;;14.40;100.00
56038;BME280;41907;47.848;9.000;2022-10-16T07:11:50;95976.50;;;14.49;100.00
56038;BME280;41907;47.848;9.000;2022-10-16T07:14:17;95975.66;;;14.57;100.00
56038;BME280;41907;47.848;9.000;2022-10-16T07:16:43;95978.13;;;14.83;100.00
56038;BME280;41907;47.848;9.000;2022-10-16T07:19:08;95989.69;;;15.49;100.00
56038;BME280;41907;47.848;9.000;2022-10-16T07:21:34;95979.16;;;17.02;100.00
56038;BME280;41907;47.848;9.000;2022-10-16T07:24:10;95984.66;;;20.40;90.14
56038;BME280;41907;47.848;9.000;2022-10-16T07:26:36;95987.69;;;20.35;85.96
56038;BME280;41907;47.848;9.000;2022-10-16T07:29:04;95972.75;;;21.01;82.08
56038;BME280;41907;47.848;9.000;2022-10-16T07:31:30;95988.13;;;22.92;72.69
56038;BME280;41907;47.848;9.000;2022-10-16T07:33:58;95989.75;;;21.98;73.47
56038;BME280;41907;47.848;9.000;2022-10-16T07:36:23;95998.03;;;20.06;83.08
56038;BME280;41907;47.848;9.000;2022-10-16T07:38:48;96007.41;;;19.48;87.24
56038;BME280;41907;47.848;9.000;2022-10-16T07:41:16;96019.91;;;18.98;90.98
56038;BME280;41907;47.848;9.000;2022-10-16T07:43:49;96014.94;;;19.19;93.32
56038;BME280;41907;47.848;9.000;2022-10-16T07:46:16;96011.50;;;22.02;79.50
56038;BME280;41907;47.848;9.000;2022-10-16T07:48:42;96008.31;;;21.26;80.16
56038;BME280;41907;47.848;9.000;2022-10-16T07:51:11;96029.97;;;20.20;83.78
56038;BME280;41907;47.848;9.000;2022-10-16T07:53:36;96026.53;;;19.39;89.11
56038;BME280;41907;47.848;9.000;2022-10-16T07:56:04;96032.00;;;18.69;93.78
56038;BME280;41907;47.848;9.000;2022-10-16T07:58:31;96019.22;;;18.03;97.83
56038;BME280;41907;47.848;9.000;2022-10-16T08:00:57;96026.81;;;17.82;100.00
56038;BME280;41907;47.848;9.000;2022-10-16T08:03:23;96020.00;;;17.44;100.00
56038;BME280;41907;47.848;9.000;2022-10-16T08:05:48;96025.31;;;17.01;100.00
56038;BME280;41907;47.848;9.000;2022-10-16T08:08:15;96019.97;;;16.77;100.00
56038;BME280;41907;47.848;9.000;2022-10-16T08:10:41;96038.06;;;16.76;100.00
56038;BME280;41907;47.848;9.000;2022-10-16T08:13:07;96039.81;;;16.84;100.00
56038;BME280;41907;47.848;9.000;2022-10-16T08:15:32;96042.19;;;16.86;100.00
56038;BME280;41907;47.848;9.000;2022-10-16T08:18:00;96038.81;;;16.89;100.00
56038;BME280;41907;47.848;9.000;2022-10-16T08:20:26;96044.94;;;17.01;100.00
56038;BME280;41907;47.848;9.000;2022-10-16T08:22:52;96047.81;;;17.21;100.00
56038;BME280;41907;47.848;9.000;2022-10-16T08:25:19;96041.75;;;17.24;100.00
56038;BME280;41907;47.848;9.000;2022-10-16T08:27:44;96043.81;;;17.42;100.00
56038;BME280;41907;47.848;9.000;2022-10-16T08:30:10;96044.84;;;17.38;100.00
56038;BME280;41907;47.848;9.000;2022-10-16T08:32:36;96055.44;;;17.59;100.00
56038;BME280;41907;47.848;9.000;2022-10-16T08:35:01;96053.69;;;17.78;100.00
56038;BME280;41907;47.848;9.000;2022-10-16T08:37:30;96059.53;;;17.96;100.00
56038;BME280;41907;47.848;9.000;2022-10-16T08:39:56;96067.13;;;18.06;100.00
56038;BME280;41907;47.848;9.000;2022-10-16T08:43:15;96066.44;;;18.25;100.00
56038;BME280;41907;47.848;9.000;2022-10-16T08:48:20;96080.00;;;20.26;93.44
56038;BME280;41907;47.848;9.000;2022-10-16T08:50:50;96077.66;;;20.97;86.84
56038;BME280;41907;47.848;9.000;2022-10-16T08:53:24;96080.53;;;20.81;86.33
56038;BME280;41907;47.848;9.000;2022-10-16T08:55:53;96078.09;;;22.25;79.20
56038;BME280;41907;47.848;9.000;2022-10-16T08:58:21;96085.03;;;21.86;78.84
56038;BME280;41907;47.848;9.000;2022-10-16T09:00:53;96084.50;;;20.87;82.09
56038;BME280;41907;47.848;9.000;2022-10-16T09:16:25;96092.25;;;20.20;88.73
56038;BME280;41907;47.848;9.000;2022-10-16T09:21:42;96104.94;;;20.81;86.44
56038;BME280;41907;47.848;9.000;2022-10-16T09:24:15;96097.53;;;21.94;81.66
56038;BME280;41907;47.848;9.000;2022-10-16T09:26:41;96111.66;;;24.75;70.56
56038;BME280;41907;47.848;9.000;2022-10-16T09:29:11;96112.06;;;27.28;59.49
56038;BME280;41907;47.848;9.000;2022-10-16T09:31:37;96110.75;;;27.81;54.72
56038;BME280;41907;47.848;9.000;2022-10-16T09:34:03;96120.16;;;28.41;51.99
56038;BME280;41907;47.848;9.000;2022-10-16T09:36:39;96121.72;;;27.40;55.51
56038;BME280;41907;47.848;9.000;2022-10-16T09:39:10;96117.16;;;29.09;50.93
56038;BME280;41907;47.848;9.000;2022-10-16T09:41:42;96125.34;;;30.18;47.57
56038;BME280;41907;47.848;9.000;2022-10-16T09:44:29;96118.91;;;31.42;44.16
56038;BME280;41907;47.848;9.000;2022-10-16T09:47:26;96122.56;;;29.36;44.30
56038;BME280;41907;47.848;9.000;2022-10-16T09:50:02;96107.06;;;28.79;45.11
56038;BME280;41907;47.848;9.000;2022-10-16T09:52:31;96112.25;;;29.20;43.55
56038;BME280;41907;47.848;9.000;2022-10-16T09:54:59;96118.41;;;29.71;44.40
56038;BME280;41907;47.848;9.000;2022-10-16T09:57:25;96104.75;;;29.01;42.29
56038;BME280;41907;47.848;9.000;2022-10-16T09:59:52;96105.09;;;29.49;44.13
56038;BME280;41907;47.848;9.000;2022-10-16T10:02:26;96103.56;;;29.02;46.45
56038;BME280;41907;47.848;9.000;2022-10-16T10:04:53;96103.47;;;27.67;45.26
56038;BME280;41907;47.848;9.000;2022-10-16T10:07:32;96096.31;;;26.43;49.92
56038;BME280;41907;47.848;9.000;2022-10-16T10:10:00;96108.78;;;25.75;54.29
56038;BME280;41907;47.848;9.000;2022-10-16T10:12:30;96116.25;;;25.49;57.00
56038;BME280;41907;47.848;9.000;2022-10-16T10:15:07;96116.28;;;25.42;57.81
56038;BME280;41907;47.848;9.000;2022-10-16T10:17:48;96115.91;;;25.30;58.16
56038;BME280;41907;47.848;9.000;2022-10-16T10:20:30;96111.66;;;25.04;58.00
56038;BME280;41907;47.848;9.000;2022-10-16T10:22:59;96108.53;;;24.84;59.19
56038;BME280;41907;47.848;9.000;2022-10-16T10:25:51;96097.59;;;24.38;58.31
56038;BME280;41907;47.848;9.000;2022-10-16T10:31:20;96111.03;;;23.81;63.21
56038;BME280;41907;47.848;9.000;2022-10-16T10:34:34;96099.25;;;23.52;61.46
56038;BME280;41907;47.848;9.000;2022-10-16T10:40:07;96093.06;;;23.59;60.77
56038;BME280;41907;47.848;9.000;2022-10-16T10:45:27;96094.09;;;24.48;59.20
56038;BME280;41907;47.848;9.000;2022-10-16T10:48:12;96098.00;;;25.04;59.97
56038;BME280;41907;47.848;9.000;2022-10-16T10:50:58;96094.31;;;25.78;56.54
56038;BME280;41907;47.848;9.000;2022-10-16T10:53:50;96095.19;;;25.50;55.88
56038;BME280;41907;47.848;9.000;2022-10-16T10:56:47;96100.25;;;25.55;53.81
56038;BME280;41907;47.848;9.000;2022-10-16T11:02:12;96090.38;;;26.59;53.54
56038;BME280;41907;47.848;9.000;2022-10-16T11:07:30;96097.25;;;29.48;45.19
56038;BME280;41907;47.848;9.000;2022-10-16T11:10:03;96086.69;;;31.39;40.94
56038;BME280;41907;47.848;9.000;2022-10-16T11:12:35;96088.72;;;31.51;39.38
56038;BME280;41907;47.848;9.000;2022-10-16T11:15:15;96090.56;;;31.70;38.87
56038;BME280;41907;47.848;9.000;2022-10-16T11:17:47;96096.22;;;31.51;38.20
56038;BME280;41907;47.848;9.000;2022-10-16T11:20:23;96083.81;;;31.42;37.66
56038;BME280;41907;47.848;9.000;2022-10-16T11:22:54;96084.31;;;31.09;38.46
56038;BME280;41907;47.848;9.000;2022-10-16T11:25:25;96083.63;;;31.21;38.91
56038;BME280;41907;47.848;9.000;2022-10-16T11:28:16;96076.53;;;31.65;38.06
56038;BME280;41907;47.848;9.000;2022-10-16T11:36:31;96061.66;;;29.41;41.26
56038;BME280;41907;47.848;9.000;2022-10-16T11:41:53;96055.41;;;28.20;43.80
56038;BME280;41907;47.848;9.000;2022-10-16T11:46:59;96048.47;;;28.39;44.03
56038;BME280;41907;47.848;9.000;2022-10-16T11:49:27;96045.53;;;28.26;43.93
56038;BME280;41907;47.848;9.000;2022-10-16T11:57:25;96050.22;;;30.02;40.29
56038;BME280;41907;47.848;9.000;2022-10-16T12:02:40;96046.94;;;29.71;41.23
56038;BME280;41907;47.848;9.000;2022-10-16T12:05:28;96036.13;;;28.97;40.94
56038;BME280;41907;47.848;9.000;2022-10-16T12:08:13;96043.72;;;29.13;42.82
56038;BME280;41907;47.848;9.000;2022-10-16T12:10:42;96034.66;;;28.46;42.43
56038;BME280;41907;47.848;9.000;2022-10-16T12:13:28;96035.38;;;28.23;45.00
56038;BME280;41907;47.848;9.000;2022-10-16T12:16:03;96025.97;;;28.24;42.16
56038;BME280;41907;47.848;9.000;2022-10-16T12:18:29;96032.34;;;28.18;45.92
56038;BME280;41907;47.848;9.000;2022-10-16T12:20:56;96024.88;;;27.88;47.09
56038;BME280;41907;47.848;9.000;2022-10-16T12:23:29;96027.41;;;27.07;50.14
56038;BME280;41907;47.848;9.000;2022-10-16T12:25:57;96025.22;;;26.91;50.36
56038;BME280;41907;47.848;9.000;2022-10-16T12:28:28;96016.28;;;26.36;48.69
56038;BME280;41907;47.848;9.000;2022-10-16T12:30:55;96017.38;;;25.86;52.26
56038;BME280;41907;47.848;9.000;2022-10-16T12:33:30;96009.94;;;25.94;52.90
56038;BME280;41907;47.848;9.000;2022-10-16T12:35:58;96013.06;;;25.92;53.66
56038;BME280;41907;47.848;9.000;2022-10-16T12:38:37;96016.59;;;25.89;53.11
56038;BME280;41907;47.848;9.000;2022-10-16T12:41:06;96012.69;;;25.90;55.65
56038;BME280;41907;47.848;9.000;2022-10-16T12:43:39;96011.09;;;25.93;55.19
56038;BME280;41907;47.848;9.000;2022-10-16T12:51:39;96010.91;;;25.55;51.58
56038;BME280;41907;47.848;9.000;2022-10-16T12:54:13;96007.47;;;25.37;52.25
56038;BME280;41907;47.848;9.000;2022-10-16T12:59:31;96016.50;;;25.16;51.83
56038;BME280;41907;47.848;9.000;2022-10-16T13:04:37;96009.16;;;24.96;53.21
56038;BME280;41907;47.848;9.000;2022-10-16T13:26:49;96030.16;;;24.10;56.96
56038;BME280;41907;47.848;9.000;2022-10-16T13:29:18;96025.94;;;24.30;59.00
56038;BME280;41907;47.848;9.000;2022-10-16T13:31:44;96023.22;;;24.34;58.64
56038;BME280;41907;47.848;9.000;2022-10-16T13:34:20;96023.22;;;24.34;57.42
56038;BME280;41907;47.848;9.000;2022-10-16T13:36:48;96025.94;;;24.30;57.77
56038;BME280;41907;47.848;9.000;2022-10-16T13:39:22;96024.72;;;24.21;59.29
56038;BME280;41907;47.848;9.000;2022-10-16T13:42:23;96020.81;;;24.18;60.75
56038;BME280;41907;47.848;9.000;2022-10-16T13:44:51;96023.53;;;24.04;59.78
56038;BME280;41907;47.848;9.000;2022-10-16T13:47:22;96016.94;;;24.16;60.35
56038;BME280;41907;47.848;9.000;2022-10-16T13:50:20;96014.59;;;24.10;58.29
56038;BME280;41907;47.848;9.000;2022-10-16T13:52:45;96024.28;;;23.97;57.50
56038;BME280;41907;47.848;9.000;2022-10-16T13:55:16;96022.81;;;23.10;61.06
56038;BME280;41907;47.848;9.000;2022-10-16T13:57:43;96018.59;;;23.19;60.69
56038;BME280;41907;47.848;9.000;2022-10-16T14:00:25;96025.63;;;23.31;60.62
56038;BME280;41907;47.848;9.000;2022-10-16T14:03:21;96008.22;;;23.50;61.07
56038;BME280;41907;47.848;9.000;2022-10-16T14:05:49;96018.16;;;23.14;58.21
56038;BME280;41907;47.848;9.000;2022-10-16T14:08:16;96012.06;;;22.73;60.10
56038;BME280;41907;47.848;9.000;2022-10-16T14:10:41;96020.78;;;22.92;61.79
56038;BME280;41907;47.848;9.000;2022-10-16T14:13:12;96011.44;;;22.90;61.16
56038;BME280;41907;47.848;9.000;2022-10-16T14:15:46;96017.34;;;23.06;60.24
56038;BME280;41907;47.848;9.000;2022-10-16T14:18:20;96012.97;;;22.87;62.70
56038;BME280;41907;47.848;9.000;2022-10-16T14:20:48;96005.97;;;22.86;62.24
56038;BME280;41907;47.848;9.000;2022-10-16T14:23:31;95999.81;;;22.93;61.31
56038;BME280;41907;47.848;9.000;2022-10-16T14:26:15;96004.13;;;23.01;58.99
56038;BME280;41907;47.848;9.000;2022-10-16T14:28:42;96003.72;;;23.02;60.64
56038;BME280;41907;47.848;9.000;2022-10-16T14:31:31;96006.44;;;23.02;61.06
56038;BME280;41907;47.848;9.000;2022-10-16T14:33:57;96006.75;;;22.83;60.99